createdAt,value
2023-11-15T00:01:36.298Z,9.52
2023-11-15T00:04:06.637Z,9.57
2023-11-15T00:06:38.876Z,9.51
2023-11-15T00:09:10.540Z,9.54
2023-11-15T00:11:39.794Z,9.54
2023-11-15T00:14:09.763Z,9.46
2023-11-15T00:16:40.478Z,9.48
2023-11-15T00:19:10.920Z,9.46
2023-11-15T00:21:43.950Z,9.52
2023-11-15T00:24:14.704Z,9.55
2023-11-15T00:26:43.658Z,9.44
2023-11-15T00:29:15.961Z,9.40
2023-11-15T00:31:44.611Z,9.41
2023-11-15T00:34:16.008Z,9.36
2023-11-15T00:36:46.507Z,9.38
2023-11-15T00:39:18.901Z,9.37
2023-11-15T00:41:47.846Z,9.30
2023-11-15T00:44:19.415Z,9.30
2023-11-15T00:46:48.606Z,9.33
2023-11-15T00:49:21.060Z,9.36
2023-11-15T00:51:55.649Z,9.27
2023-11-15T00:54:28.724Z,9.30
2023-11-15T00:56:59.263Z,9.34
2023-11-15T00:59:39.585Z,9.28
2023-11-15T01:02:09.174Z,9.24
2023-11-15T01:04:39.025Z,9.20
2023-11-15T01:07:08.749Z,9.20
2023-11-15T01:09:41.170Z,9.16
2023-11-15T01:12:10.241Z,9.19
2023-11-15T01:14:42.068Z,9.16
2023-11-15T01:17:14.392Z,9.19
2023-11-15T01:19:42.946Z,9.19
2023-11-15T01:22:12.320Z,9.06
2023-11-15T01:24:44.517Z,9.12
2023-11-15T01:27:14.897Z,9.00
2023-11-15T01:29:43.862Z,9.09
2023-11-15T01:32:18.298Z,9.06
2023-11-15T01:34:46.826Z,9.06
2023-11-15T01:37:16.816Z,9.05
2023-11-15T01:39:52.082Z,9.00
2023-11-15T01:42:23.810Z,9.09
2023-11-15T01:44:54.202Z,9.09
2023-11-15T01:47:22.804Z,9.12
2023-11-15T01:49:53.092Z,9.10
2023-11-15T01:52:23.736Z,9.09
2023-11-15T01:54:56.057Z,9.07
2023-11-15T01:57:27.770Z,9.05
2023-11-15T01:59:57.153Z,9.06
2023-11-15T02:02:26.413Z,8.93
2023-11-15T02:04:57.278Z,8.93
2023-11-15T02:07:25.877Z,8.92
2023-11-15T02:09:57.269Z,8.93
2023-11-15T02:12:29.212Z,8.90
2023-11-15T02:14:59.162Z,8.93
2023-11-15T02:17:29.490Z,8.96
2023-11-15T02:19:57.853Z,8.89
2023-11-15T02:22:28.262Z,8.90
2023-11-15T02:24:59.422Z,8.83
2023-11-15T02:27:28.809Z,8.82
2023-11-15T02:29:57.528Z,8.88
2023-11-15T02:32:26.508Z,8.88
2023-11-15T02:34:58.140Z,8.88
2023-11-15T02:37:29.023Z,8.89
2023-11-15T02:40:02.361Z,8.86
2023-11-15T02:42:30.738Z,8.82
2023-11-15T02:44:59.817Z,8.67
2023-11-15T02:47:29.524Z,8.65
2023-11-15T02:49:58.931Z,8.68
2023-11-15T02:52:29.520Z,8.69
2023-11-15T02:55:00.080Z,8.75
2023-11-15T02:57:28.755Z,8.73
2023-11-15T02:59:57.418Z,8.75
2023-11-15T03:02:29.395Z,8.72
2023-11-15T03:05:00.805Z,8.78
2023-11-15T03:07:29.472Z,8.78
2023-11-15T03:10:00.279Z,8.80
2023-11-15T03:12:34.812Z,8.80
2023-11-15T03:15:06.547Z,8.83
2023-11-15T03:17:39.720Z,8.82
2023-11-15T03:20:12.204Z,8.72
2023-11-15T03:22:43.227Z,8.76
2023-11-15T03:25:13.289Z,8.80
2023-11-15T03:27:43.137Z,8.78
2023-11-15T03:30:13.448Z,8.62
2023-11-15T03:32:43.379Z,8.54
2023-11-15T03:35:15.001Z,8.41
2023-11-15T03:37:43.385Z,8.42
2023-11-15T03:40:15.478Z,8.41
2023-11-15T03:42:51.990Z,8.36
2023-11-15T03:45:21.557Z,8.24
2023-11-15T03:47:54.231Z,8.17
2023-11-15T03:50:22.838Z,8.11
2023-11-15T03:52:51.866Z,8.02
2023-11-15T03:55:23.486Z,7.97
2023-11-15T03:57:57.613Z,7.93
2023-11-15T04:00:30.057Z,7.82
2023-11-15T04:03:00.244Z,7.78
2023-11-15T04:05:33.963Z,7.75
2023-11-15T04:08:03.004Z,7.65
2023-11-15T04:10:33.095Z,7.56
2023-11-15T04:13:03.997Z,7.56
2023-11-15T04:15:39.647Z,7.51
2023-11-15T04:18:10.461Z,7.41
2023-11-15T04:20:41.629Z,7.45
2023-11-15T04:23:13.033Z,7.54
2023-11-15T04:25:44.966Z,7.44
2023-11-15T04:28:16.333Z,7.47
2023-11-15T04:30:55.741Z,7.32
2023-11-15T04:33:25.719Z,7.25
2023-11-15T04:35:57.389Z,7.30
2023-11-15T04:38:27.871Z,7.36
2023-11-15T04:41:02.121Z,7.36
2023-11-15T04:43:34.136Z,7.54
2023-11-15T04:46:07.169Z,7.54
2023-11-15T04:48:36.634Z,7.52
2023-11-15T04:51:08.028Z,7.47
2023-11-15T04:53:42.591Z,7.40
2023-11-15T04:56:14.519Z,7.42
2023-11-15T04:58:43.197Z,7.48
2023-11-15T05:01:15.074Z,7.50
2023-11-15T05:03:44.110Z,7.48
2023-11-15T05:06:12.964Z,7.50
2023-11-15T05:08:41.194Z,7.52
2023-11-15T05:11:12.615Z,7.59
2023-11-15T05:13:44.168Z,7.58
2023-11-15T05:16:13.767Z,7.63
2023-11-15T05:18:43.928Z,7.63
2023-11-15T05:21:12.781Z,7.59
2023-11-15T05:23:43.282Z,7.65
2023-11-15T05:26:18.896Z,7.55
2023-11-15T05:28:48.847Z,7.59
2023-11-15T05:31:18.992Z,7.59
2023-11-15T05:33:55.613Z,7.59
2023-11-15T05:36:24.125Z,7.54
2023-11-15T05:38:54.061Z,7.59
2023-11-15T05:41:27.773Z,7.56
2023-11-15T05:44:00.600Z,7.55
2023-11-15T05:46:29.509Z,7.56
2023-11-15T05:49:02.553Z,7.61
2023-11-15T05:51:35.558Z,7.56
2023-11-15T05:54:08.591Z,7.58
2023-11-15T05:56:37.066Z,7.52
2023-11-15T05:59:07.440Z,7.52
2023-11-15T06:01:47.151Z,7.52
2023-11-15T06:04:23.057Z,7.52
2023-11-15T06:06:51.363Z,7.52
2023-11-15T06:09:20.561Z,7.51
2023-11-15T06:11:49.451Z,7.52
2023-11-15T06:14:20.414Z,7.54
2023-11-15T06:16:51.874Z,7.47
2023-11-15T06:19:24.635Z,7.48
2023-11-15T06:21:54.511Z,7.44
2023-11-15T06:24:24.699Z,7.48
2023-11-15T06:26:54.504Z,7.52
2023-11-15T06:29:28.146Z,7.61
2023-11-15T06:32:01.820Z,7.61
2023-11-15T06:34:32.552Z,7.71
2023-11-15T06:37:01.358Z,7.76
2023-11-15T06:39:31.185Z,7.89
2023-11-15T06:42:02.239Z,7.93
2023-11-15T06:44:35.491Z,8.23
2023-11-15T06:47:10.547Z,8.34
2023-11-15T06:49:39.513Z,8.92
2023-11-15T06:52:10.144Z,9.26
2023-11-15T06:54:40.920Z,9.22
2023-11-15T06:57:11.474Z,9.51
2023-11-15T06:59:45.644Z,9.65
2023-11-15T07:02:19.895Z,9.78
2023-11-15T07:04:53.822Z,10.01
2023-11-15T07:07:25.085Z,9.89
2023-11-15T07:09:55.820Z,9.71
2023-11-15T07:12:26.561Z,10.09
2023-11-15T07:14:59.360Z,10.10
2023-11-15T07:17:29.382Z,10.10
2023-11-15T07:20:01.557Z,9.98
2023-11-15T07:22:44.321Z,10.39
2023-11-15T07:25:19.256Z,10.47
2023-11-15T07:27:56.363Z,10.82
2023-11-15T07:30:26.420Z,10.78
2023-11-15T07:32:57.054Z,11.05
2023-11-15T07:35:27.051Z,11.25
2023-11-15T07:37:59.188Z,11.57
2023-11-15T07:40:33.124Z,11.42
2023-11-15T07:43:03.315Z,11.52
2023-11-15T07:45:35.071Z,11.60
2023-11-15T07:48:06.736Z,11.91
2023-11-15T07:50:37.159Z,12.13
2023-11-15T07:53:08.104Z,12.17
2023-11-15T07:55:40.265Z,12.28
2023-11-15T07:58:12.449Z,12.34
2023-11-15T08:00:42.934Z,12.45
2023-11-15T08:03:14.437Z,12.35
2023-11-15T08:05:48.467Z,12.41
2023-11-15T08:08:20.264Z,12.70
2023-11-15T08:10:53.447Z,12.75
2023-11-15T08:13:25.263Z,12.75
2023-11-15T08:15:57.656Z,12.86
2023-11-15T08:18:32.207Z,12.93
2023-11-15T08:21:06.748Z,12.96
2023-11-15T08:23:39.513Z,12.97
2023-11-15T08:26:12.865Z,12.94
2023-11-15T08:28:42.028Z,12.99
2023-11-15T08:31:17.518Z,12.96
2023-11-15T08:33:48.319Z,12.87
2023-11-15T08:36:20.118Z,12.72
2023-11-15T08:38:52.330Z,12.62
2023-11-15T08:41:23.705Z,12.72
2023-11-15T08:43:54.870Z,12.65
2023-11-15T08:46:29.625Z,12.59
2023-11-15T08:49:01.930Z,12.62
2023-11-15T08:51:33.251Z,12.55
2023-11-15T08:54:01.964Z,12.53
2023-11-15T08:56:38.410Z,12.48
2023-11-15T08:59:15.407Z,12.49
2023-11-15T09:01:51.723Z,12.52
2023-11-15T09:04:23.973Z,12.50
2023-11-15T09:06:57.382Z,12.45
2023-11-15T09:09:28.381Z,12.42
2023-11-15T09:12:08.795Z,12.39
2023-11-15T09:14:41.278Z,12.36
2023-11-15T09:17:17.510Z,12.29
2023-11-15T09:19:53.320Z,12.34
2023-11-15T09:22:22.292Z,12.36
2023-11-15T09:25:03.575Z,12.31
2023-11-15T09:27:39.745Z,12.20
2023-11-15T09:30:19.422Z,12.18
2023-11-15T09:32:52.201Z,12.10
2023-11-15T09:35:24.425Z,12.15
2023-11-15T09:37:56.315Z,12.20
2023-11-15T09:40:28.199Z,12.24
2023-11-15T09:43:01.365Z,12.24
2023-11-15T09:45:35.850Z,12.22
2023-11-15T09:48:11.480Z,12.18
2023-11-15T09:50:49.969Z,12.15
2023-11-15T09:53:26.511Z,12.17
2023-11-15T09:56:05.862Z,12.05
2023-11-15T09:58:36.495Z,12.04
2023-11-15T10:01:12.057Z,12.08
2023-11-15T10:03:45.958Z,12.08
2023-11-15T10:06:18.534Z,12.10
2023-11-15T10:08:59.008Z,12.11
2023-11-15T10:11:31.031Z,12.02
2023-11-15T10:14:10.693Z,12.02
2023-11-15T10:16:44.101Z,12.02
2023-11-15T10:19:30.756Z,12.01
2023-11-15T10:22:06.943Z,12.04
2023-11-15T10:24:39.173Z,12.07
2023-11-15T10:27:16.260Z,12.05
2023-11-15T10:29:48.286Z,12.04
2023-11-15T10:32:39.892Z,12.05
2023-11-15T10:35:28.615Z,12.20
2023-11-15T10:38:14.183Z,12.18
2023-11-15T10:40:50.658Z,12.31
2023-11-15T10:43:21.651Z,12.38
2023-11-15T10:45:57.020Z,12.39
2023-11-15T10:48:34.681Z,12.42
2023-11-15T10:51:14.828Z,12.39
2023-11-15T10:53:45.760Z,12.45
2023-11-15T10:56:17.261Z,12.46
2023-11-15T10:58:51.171Z,12.53
2023-11-15T11:01:30.578Z,12.48
2023-11-15T11:04:00.833Z,12.53
2023-11-15T11:06:40.390Z,12.56
2023-11-15T11:09:18.840Z,12.52
2023-11-15T11:11:59.169Z,12.49
2023-11-15T11:14:32.359Z,12.42
2023-11-15T11:17:04.366Z,12.35
2023-11-15T11:19:43.674Z,12.29
2023-11-15T11:22:16.148Z,12.28
2023-11-15T11:25:24.142Z,12.24
2023-11-15T11:27:59.089Z,12.35
2023-11-15T11:30:29.428Z,12.38
2023-11-15T11:33:16.999Z,12.42
2023-11-15T11:35:49.620Z,12.44
2023-11-15T11:38:44.381Z,12.52
2023-11-15T11:41:16.368Z,12.49
2023-11-15T11:43:45.907Z,12.45
2023-11-15T11:46:21.909Z,12.44
2023-11-15T11:49:06.660Z,12.48
2023-11-15T11:51:41.638Z,12.53
2023-11-15T11:54:25.248Z,12.62
2023-11-15T11:56:56.747Z,12.63
2023-11-15T11:59:30.768Z,12.62
2023-11-15T12:02:01.167Z,12.70
2023-11-15T12:04:33.714Z,12.77
2023-11-15T12:07:06.606Z,12.90
2023-11-15T12:09:46.352Z,13.03
2023-11-15T12:12:24.730Z,13.03
2023-11-15T12:14:59.858Z,12.92
2023-11-15T12:17:41.219Z,12.96
2023-11-15T12:20:14.101Z,12.80
2023-11-15T12:22:51.121Z,12.87
2023-11-15T12:25:24.671Z,12.87
2023-11-15T12:27:55.911Z,12.84
2023-11-15T12:30:27.997Z,12.80
2023-11-15T12:33:01.862Z,12.82
2023-11-15T12:35:38.669Z,12.76
2023-11-15T12:38:13.308Z,12.73
2023-11-15T12:40:46.291Z,12.75
2023-11-15T12:43:20.763Z,12.70
2023-11-15T12:45:52.623Z,12.75
2023-11-15T12:48:23.155Z,12.80
2023-11-15T12:51:03.819Z,12.75
2023-11-15T12:53:37.168Z,12.72
2023-11-15T12:56:20.286Z,12.79
2023-11-15T12:58:55.602Z,12.86
2023-11-15T13:01:29.324Z,12.89
2023-11-15T13:04:02.579Z,12.82
2023-11-15T13:06:43.120Z,12.80
2023-11-15T13:09:16.698Z,12.79
2023-11-15T13:11:48.477Z,12.84
2023-11-15T13:14:26.079Z,12.93
2023-11-15T13:16:59.439Z,12.94
2023-11-15T13:19:29.384Z,13.00
2023-11-15T13:22:05.798Z,13.08
2023-11-15T13:24:34.442Z,13.10
2023-11-15T13:27:04.427Z,13.21
2023-11-15T13:29:38.339Z,13.18
2023-11-15T13:32:11.917Z,13.10
2023-11-15T13:34:45.070Z,13.03
2023-11-15T13:37:25.635Z,12.99
2023-11-15T13:39:57.594Z,13.00
2023-11-15T13:42:34.616Z,12.97
2023-11-15T13:45:08.022Z,12.92
2023-11-15T13:47:38.339Z,12.83
2023-11-15T13:50:10.923Z,12.82
2023-11-15T13:52:42.091Z,12.76
2023-11-15T13:55:13.265Z,12.77
2023-11-15T13:57:52.786Z,12.75
2023-11-15T14:00:29.215Z,12.70
2023-11-15T14:03:00.486Z,12.69
2023-11-15T14:05:31.746Z,12.66
2023-11-15T14:08:01.717Z,12.59
2023-11-15T14:10:32.803Z,12.52
2023-11-15T14:13:07.171Z,12.52
2023-11-15T14:15:38.312Z,12.50
2023-11-15T14:18:11.725Z,12.46
2023-11-15T14:20:41.081Z,12.49
2023-11-15T14:23:09.747Z,12.42
2023-11-15T14:25:38.465Z,12.55
2023-11-15T14:28:09.085Z,12.50
2023-11-15T14:30:41.164Z,12.62
2023-11-15T14:33:11.004Z,12.57
2023-11-15T14:35:45.217Z,12.66
2023-11-15T14:38:13.854Z,12.59
2023-11-15T14:40:45.658Z,12.62
2023-11-15T14:43:18.633Z,12.49
2023-11-15T14:45:47.939Z,12.49
2023-11-15T14:48:19.954Z,12.42
2023-11-15T14:50:54.538Z,12.45
2023-11-15T14:53:37.993Z,12.50
2023-11-15T14:56:12.136Z,12.44
2023-11-15T14:58:42.581Z,12.39
2023-11-15T15:01:15.352Z,12.31
2023-11-15T15:03:47.884Z,12.25
2023-11-15T15:06:17.387Z,12.36
2023-11-15T15:08:48.672Z,12.22
2023-11-15T15:11:20.190Z,12.29
2023-11-15T15:13:52.196Z,12.21
2023-11-15T15:16:23.042Z,12.13
2023-11-15T15:18:53.616Z,12.15
2023-11-15T15:21:22.917Z,12.21
2023-11-15T15:23:58.613Z,12.25
2023-11-15T15:26:37.294Z,12.14
2023-11-15T15:29:18.688Z,12.22
2023-11-15T15:31:56.805Z,12.21
2023-11-15T15:34:32.364Z,12.08
2023-11-15T15:37:04.140Z,12.02
2023-11-15T15:39:35.295Z,11.99
2023-11-15T15:42:06.290Z,11.95
2023-11-15T15:44:39.316Z,11.99
2023-11-15T15:47:11.774Z,12.07
2023-11-15T15:49:46.591Z,12.10
2023-11-15T15:52:17.161Z,12.05
2023-11-15T15:54:48.008Z,12.05
2023-11-15T15:57:25.139Z,12.08
2023-11-15T15:59:55.323Z,12.13
2023-11-15T16:02:24.831Z,12.05
2023-11-15T16:04:53.715Z,12.17
2023-11-15T16:07:24.140Z,12.13
2023-11-15T16:09:54.253Z,12.10
2023-11-15T16:12:24.702Z,12.28
2023-11-15T16:14:58.509Z,12.15
2023-11-15T16:17:28.626Z,12.24
2023-11-15T16:19:58.993Z,12.20
2023-11-15T16:22:28.311Z,12.17
2023-11-15T16:24:58.315Z,12.26
2023-11-15T16:27:34.484Z,12.14
2023-11-15T16:30:21.085Z,12.22
2023-11-15T16:32:54.775Z,12.24
2023-11-15T16:35:23.391Z,12.15
2023-11-15T16:37:56.047Z,12.13
2023-11-15T16:40:24.886Z,12.07
2023-11-15T16:42:53.943Z,12.20
2023-11-15T16:45:28.184Z,12.10
2023-11-15T16:47:59.776Z,12.05
2023-11-15T16:50:28.211Z,12.01
2023-11-15T16:52:57.659Z,12.05
2023-11-15T16:55:27.932Z,11.99
2023-11-15T16:57:58.536Z,12.02
2023-11-15T17:00:31.983Z,12.05
2023-11-15T17:03:00.583Z,11.98
2023-11-15T17:05:33.404Z,11.97
2023-11-15T17:08:08.456Z,11.98
2023-11-15T17:10:38.349Z,11.83
2023-11-15T17:13:07.231Z,11.81
2023-11-15T17:15:40.116Z,11.71
2023-11-15T17:18:09.125Z,11.86
2023-11-15T17:20:41.617Z,11.91
2023-11-15T17:23:12.113Z,11.87
2023-11-15T17:25:40.991Z,11.91
2023-11-15T17:28:11.593Z,11.78
2023-11-15T17:30:41.503Z,11.78
2023-11-15T17:33:10.536Z,11.74
2023-11-15T17:35:40.452Z,11.74
2023-11-15T17:38:12.718Z,11.80
2023-11-15T17:40:45.997Z,11.74
2023-11-15T17:43:18.090Z,11.70
2023-11-15T17:45:51.004Z,11.70
2023-11-15T17:48:20.527Z,11.66
2023-11-15T17:50:51.908Z,11.60
2023-11-15T17:53:22.571Z,11.50
2023-11-15T17:55:52.254Z,11.49
2023-11-15T17:58:21.040Z,11.40
2023-11-15T18:01:05.749Z,11.23
2023-11-15T18:03:35.742Z,11.36
2023-11-15T18:06:05.334Z,11.28
2023-11-15T18:08:34.290Z,11.25
2023-11-15T18:11:04.876Z,11.07
2023-11-15T18:13:34.079Z,11.04
2023-11-15T18:16:05.824Z,10.95
2023-11-15T18:18:35.239Z,10.94
2023-11-15T18:21:04.545Z,10.91
2023-11-15T18:23:36.146Z,10.82
2023-11-15T18:26:06.408Z,11.05
2023-11-15T18:28:39.218Z,11.09
2023-11-15T18:31:09.591Z,11.21
2023-11-15T18:33:40.372Z,11.28
2023-11-15T18:36:12.298Z,11.33
2023-11-15T18:38:41.467Z,11.35
2023-11-15T18:41:13.773Z,11.18
2023-11-15T18:43:45.293Z,11.12
2023-11-15T18:46:23.881Z,11.05
2023-11-15T18:48:54.341Z,11.18
2023-11-15T18:51:29.705Z,11.09
2023-11-15T18:54:04.843Z,11.07
2023-11-15T18:56:33.148Z,10.98
2023-11-15T18:59:03.191Z,11.09
2023-11-15T19:01:33.776Z,10.95
2023-11-15T19:04:02.716Z,11.01
2023-11-15T19:06:34.548Z,10.95
2023-11-15T19:09:02.911Z,10.90
2023-11-15T19:11:32.417Z,10.75
2023-11-15T19:14:04.469Z,10.98
2023-11-15T19:16:36.860Z,11.01
2023-11-15T19:19:09.587Z,10.98
2023-11-15T19:21:38.807Z,11.04
2023-11-15T19:24:14.638Z,11.02
2023-11-15T19:26:46.094Z,10.95
2023-11-15T19:29:17.566Z,10.82
2023-11-15T19:31:49.421Z,10.82
2023-11-15T19:34:18.725Z,10.77
2023-11-15T19:36:47.071Z,10.70
2023-11-15T19:39:16.055Z,10.68
2023-11-15T19:41:44.746Z,10.53
2023-11-15T19:44:15.765Z,10.49
2023-11-15T19:46:46.350Z,10.39
2023-11-15T19:49:20.191Z,10.34
2023-11-15T19:51:53.577Z,10.44
2023-11-15T19:54:23.921Z,10.42
2023-11-15T19:56:59.727Z,10.33
2023-11-15T19:59:28.554Z,10.29
2023-11-15T20:01:57.564Z,10.39
2023-11-15T20:04:32.831Z,10.22
2023-11-15T20:07:03.301Z,10.23
2023-11-15T20:09:33.808Z,10.01
2023-11-15T20:12:09.016Z,10.20
2023-11-15T20:14:37.882Z,10.22
2023-11-15T20:17:07.078Z,10.03
2023-11-15T20:19:44.683Z,9.92
2023-11-15T20:22:13.499Z,9.94
2023-11-15T20:24:46.958Z,9.98
2023-11-15T20:27:17.504Z,9.81
2023-11-15T20:29:45.711Z,9.84
2023-11-15T20:32:18.034Z,9.78
2023-11-15T20:34:48.122Z,9.59
2023-11-15T20:37:21.485Z,9.57
2023-11-15T20:39:51.966Z,9.61
2023-11-15T20:42:24.476Z,9.65
2023-11-15T20:44:57.264Z,9.70
2023-11-15T20:47:25.825Z,9.84
2023-11-15T20:49:55.722Z,9.84
2023-11-15T20:52:26.512Z,9.82
2023-11-15T20:54:55.551Z,10.08
2023-11-15T20:57:28.406Z,10.06
2023-11-15T21:00:03.088Z,10.13
2023-11-15T21:02:34.218Z,10.12
2023-11-15T21:05:04.620Z,10.16
2023-11-15T21:07:33.687Z,10.09
2023-11-15T21:10:10.269Z,10.03
2023-11-15T21:12:43.612Z,10.15
2023-11-15T21:15:14.852Z,10.17
2023-11-15T21:17:44.965Z,10.03
2023-11-15T21:20:15.978Z,10.06
2023-11-15T21:22:45.019Z,10.06
2023-11-15T21:25:14.237Z,10.05
2023-11-15T21:27:51.341Z,10.12
2023-11-15T21:30:20.073Z,10.08
2023-11-15T21:32:52.559Z,10.13
2023-11-15T21:35:26.142Z,10.02
2023-11-15T21:37:55.659Z,10.15
2023-11-15T21:40:24.358Z,10.13
2023-11-15T21:42:53.246Z,10.19
2023-11-15T21:45:21.909Z,10.17
2023-11-15T21:47:56.442Z,10.15
2023-11-15T21:50:29.619Z,10.20
2023-11-15T21:53:01.220Z,10.15
2023-11-15T21:55:29.670Z,10.20
2023-11-15T21:58:08.044Z,10.12
2023-11-15T22:00:39.285Z,10.23
2023-11-15T22:03:08.384Z,10.15
2023-11-15T22:05:41.762Z,10.08
2023-11-15T22:08:12.320Z,10.03
2023-11-15T22:10:47.160Z,10.01
2023-11-15T22:13:16.831Z,10.08
2023-11-15T22:15:45.189Z,10.15
2023-11-15T22:18:14.497Z,10.05
2023-11-15T22:20:48.118Z,10.08
2023-11-15T22:23:16.868Z,10.06
2023-11-15T22:25:46.234Z,10.01
2023-11-15T22:28:22.055Z,10.06
2023-11-15T22:30:53.372Z,10.05
2023-11-15T22:33:22.128Z,10.01
2023-11-15T22:35:52.228Z,9.99
2023-11-15T22:38:20.697Z,9.99
2023-11-15T22:40:50.219Z,10.02
2023-11-15T22:43:20.374Z,9.94
2023-11-15T22:45:49.470Z,9.94
2023-11-15T22:48:22.838Z,9.95
2023-11-15T22:50:52.557Z,9.86
2023-11-15T22:53:21.383Z,9.86
2023-11-15T22:55:53.229Z,9.95
2023-11-15T22:58:22.535Z,9.89
2023-11-15T23:00:55.872Z,9.86
2023-11-15T23:03:25.808Z,9.84
2023-11-15T23:05:58.193Z,9.78
2023-11-15T23:08:31.609Z,9.79
2023-11-15T23:11:01.674Z,9.77
2023-11-15T23:13:32.298Z,9.81
2023-11-15T23:16:01.741Z,9.62
2023-11-15T23:18:30.770Z,9.62
2023-11-15T23:21:19.947Z,9.41
2023-11-15T23:23:52.907Z,9.77
2023-11-15T23:26:25.523Z,9.84
2023-11-15T23:28:55.595Z,9.79
2023-11-15T23:31:25.442Z,9.68
2023-11-15T23:33:58.676Z,9.57
2023-11-15T23:36:32.247Z,9.57
2023-11-15T23:39:06.290Z,9.47
2023-11-15T23:41:39.840Z,9.44
2023-11-15T23:44:14.639Z,9.27
2023-11-15T23:46:50.965Z,9.22
2023-11-15T23:49:24.145Z,9.26
2023-11-15T23:51:54.067Z,9.05
2023-11-15T23:54:22.846Z,9.13
2023-11-15T23:56:52.045Z,9.00
2023-11-15T23:59:22.282Z,9.37
